Christchurch, New Zealand
Current Conditions -  °F | °C
As of 2:00 AM on Tuesday 25 Nov 2014 (Local Time) from NZCH Reporting Station
Scattered Clouds Scattered Clouds  
Wind Chill: 12°   Ceiling: Unl
Heat Index: 12°   Visibility: 6mi
Dew Point: 11°   Wind: 3mph
Humidity: 94%   Direction: 320°NW
Pressure: 29.85"   Gusts: NA
Location:  43.53°S, 172.64°E
Report Text: NZCH 241400Z AUTO 32003KT 9999 SCT007/// 12/11 Q1011 TEMPOBKN006
Loading
Personal Weather Stations






























Interactive Weather Map New forecast layout! Learn more

10-Day Weather Forecast

Advertisements
Track Severe Weather on mobile